createdAt,value
2022-08-10T00:01:54.611Z,103184.19
2022-08-10T00:04:22.965Z,103183.44
2022-08-10T00:06:54.446Z,103186.06
2022-08-10T00:09:22.405Z,103204.69
2022-08-10T00:11:49.159Z,103207.31
2022-08-10T00:14:16.034Z,103216.38
2022-08-10T00:16:42.507Z,103220.16
2022-08-10T00:19:09.744Z,103231.56
2022-08-10T00:21:36.823Z,103232.34
2022-08-10T00:24:03.723Z,103247.53
2022-08-10T00:27:49.981Z,103247.66
2022-08-10T00:29:16.837Z,103252.00
2022-08-10T00:31:58.709Z,103256.72
2022-08-10T00:34:27.489Z,103272.22
2022-08-10T00:36:54.054Z,103275.06
2022-08-10T00:39:20.653Z,103276.03
2022-08-10T00:41:47.400Z,103289.22
2022-08-10T00:44:33.074Z,103285.69
2022-08-10T00:47:00.917Z,103292.13
2022-08-10T00:49:28.480Z,103297.47
2022-08-10T00:51:55.804Z,103302.78
2022-08-10T00:54:24.343Z,103313.31
2022-08-10T00:57:15.696Z,103325.81
2022-08-10T00:59:59.038Z,103322.41
2022-08-10T01:02:25.178Z,103331.38
2022-08-10T01:05:00.763Z,103351.94
2022-08-10T01:07:49.214Z,103381.19
2022-08-10T01:10:43.617Z,103428.97
2022-08-10T01:13:20.204Z,103444.97
2022-08-10T01:15:55.263Z,103443.25
2022-08-10T01:18:34.719Z,103448.63
2022-08-10T01:21:50.557Z,103446.00
2022-08-10T01:24:45.568Z,103470.06
2022-08-10T01:27:30.890Z,103517.16
2022-08-10T01:30:14.143Z,103629.91
2022-08-10T01:32:40.551Z,103640.66
2022-08-10T01:35:36.405Z,103638.97
2022-08-10T01:38:14.627Z,103653.28
2022-08-10T01:40:44.879Z,103655.94
2022-08-10T01:43:16.090Z,103651.75
2022-08-10T01:45:46.208Z,103661.47
2022-08-10T01:48:33.444Z,103659.63
2022-08-10T01:51:21.991Z,103662.31
2022-08-10T01:54:00.373Z,103667.53
2022-08-10T01:56:31.095Z,103669.47
2022-08-10T01:59:01.297Z,103680.06
2022-08-10T02:01:30.879Z,103671.28
2022-08-10T02:04:05.619Z,103672.91
2022-08-10T02:06:37.101Z,103678.38
2022-08-10T02:09:06.657Z,103673.25
2022-08-10T02:11:55.873Z,103677.56
2022-08-10T02:14:23.631Z,103678.44
2022-08-10T02:16:52.664Z,103682.91
2022-08-10T02:19:24.396Z,103689.13
2022-08-10T02:22:35.646Z,103701.59
2022-08-10T02:24:42.598Z,103710.53
2022-08-10T02:27:11.311Z,103711.44
2022-08-10T02:29:42.480Z,103715.84
2022-08-10T02:32:10.019Z,103724.78
2022-08-10T02:34:39.273Z,103731.03
2022-08-10T02:37:10.860Z,103737.34
2022-08-10T02:39:39.063Z,103743.47
2022-08-10T02:45:02.155Z,103747.72
2022-08-10T02:45:24.707Z,103742.47
2022-08-10T02:47:57.894Z,103754.16
2022-08-10T02:50:30.062Z,103778.03
2022-08-10T02:53:05.181Z,103783.34
2022-08-10T02:55:40.491Z,103795.88
2022-08-10T02:58:13.338Z,103781.78
2022-08-10T03:00:48.409Z,103794.34
2022-08-10T03:03:24.760Z,103781.97
2022-08-10T03:06:03.652Z,103794.34
2022-08-10T03:08:36.532Z,103815.72
2022-08-10T03:11:05.050Z,103821.03
2022-08-10T03:13:33.005Z,103824.50
2022-08-10T03:16:02.561Z,103828.03
2022-08-10T03:18:31.869Z,103833.44
2022-08-10T03:20:59.429Z,103832.47
2022-08-10T03:23:27.425Z,103833.34
2022-08-10T03:25:58.847Z,103836.13
2022-08-10T03:28:28.096Z,103850.34
2022-08-10T03:30:56.976Z,103854.78
2022-08-10T03:33:27.155Z,103861.81
2022-08-10T03:36:43.936Z,103860.84
2022-08-10T03:38:41.554Z,103858.25
2022-08-10T03:41:11.527Z,103872.38
2022-08-10T03:43:45.264Z,103870.75
2022-08-10T03:46:13.798Z,103892.13
2022-08-10T03:48:48.371Z,103892.25
2022-08-10T03:51:18.842Z,103887.72
2022-08-10T03:54:03.156Z,103897.41
2022-08-10T03:56:35.040Z,103895.69
2022-08-10T03:59:01.668Z,103891.22
2022-08-10T04:02:43.491Z,103897.50
2022-08-10T04:04:20.914Z,103907.28
2022-08-10T04:06:54.651Z,103911.66
2022-08-10T04:09:23.391Z,103916.91
2022-08-10T04:11:49.910Z,103913.34
2022-08-10T04:14:47.341Z,103924.72
2022-08-10T04:17:03.003Z,103922.88
2022-08-10T04:19:40.730Z,103934.34
2022-08-10T04:22:13.663Z,103941.47
2022-08-10T04:24:41.848Z,103945.06
2022-08-10T04:27:09.101Z,103952.03
2022-08-10T04:29:36.364Z,103958.25
2022-08-10T04:32:04.538Z,103962.59
2022-08-10T04:34:32.419Z,103969.69
2022-08-10T04:37:04.348Z,103969.63
2022-08-10T04:39:33.421Z,103980.22
2022-08-10T04:42:00.414Z,103992.44
2022-08-10T04:44:27.275Z,103995.91
2022-08-10T04:46:58.067Z,103995.88
2022-08-10T04:49:56.206Z,103990.47
2022-08-10T04:52:12.276Z,103990.44
2022-08-10T04:54:38.753Z,103994.78
2022-08-10T04:57:06.310Z,103994.78
2022-08-10T04:59:32.838Z,104000.84
2022-08-10T05:02:29.033Z,103994.50
2022-08-10T05:04:45.915Z,103982.66
2022-08-10T05:07:16.633Z,103977.03
2022-08-10T05:10:02.699Z,103979.50
2022-08-10T05:12:32.165Z,103979.41
2022-08-10T05:15:03.024Z,103981.06
2022-08-10T05:17:29.582Z,103979.94
2022-08-10T05:20:02.214Z,103977.88
2022-08-10T05:22:32.275Z,103976.63
2022-08-10T05:24:58.820Z,103972.84
2022-08-10T05:27:25.260Z,103972.47
2022-08-10T05:30:02.105Z,103957.19
2022-08-10T05:32:55.455Z,103949.75
2022-08-10T05:35:20.089Z,103946.06
2022-08-10T05:38:09.061Z,103939.50
2022-08-10T05:40:37.590Z,103926.50
2022-08-10T05:43:05.182Z,103926.47
2022-08-10T05:45:31.683Z,103910.09
2022-08-10T05:48:54.830Z,103908.44
2022-08-10T05:50:44.782Z,103890.22
2022-08-10T05:53:59.010Z,103875.09
2022-08-10T05:55:57.800Z,103863.81
2022-08-10T05:58:24.349Z,103850.50
2022-08-10T06:00:55.996Z,103851.66
2022-08-10T06:03:27.587Z,103842.56
2022-08-10T06:05:55.650Z,103856.66
2022-08-10T06:08:25.020Z,103851.09
2022-08-10T06:12:27.479Z,103838.06
2022-08-10T06:14:13.857Z,103822.09
2022-08-10T06:16:44.322Z,103802.72
2022-08-10T06:19:15.019Z,103787.47
2022-08-10T06:22:00.441Z,103767.03
2022-08-10T06:24:31.907Z,103735.25
2022-08-10T06:26:59.728Z,103699.66
2022-08-10T06:29:28.387Z,103650.84
2022-08-10T06:31:57.021Z,103604.34
2022-08-10T06:34:31.780Z,103566.56
2022-08-10T06:37:02.406Z,103523.19
2022-08-10T06:39:36.924Z,103480.47
2022-08-10T06:42:41.120Z,103469.41
2022-08-10T06:45:09.757Z,103444.69
2022-08-10T06:47:36.167Z,103431.88
2022-08-10T06:50:10.304Z,103424.19
2022-08-10T06:52:38.307Z,103406.28
2022-08-10T06:55:09.044Z,103394.88
2022-08-10T06:57:37.741Z,103384.09
2022-08-10T07:00:06.057Z,103372.63
2022-08-10T07:02:48.177Z,103361.75
2022-08-10T07:05:19.842Z,103355.16
2022-08-10T07:07:47.715Z,103336.94
2022-08-10T07:10:18.555Z,103312.94
2022-08-10T07:12:47.553Z,103285.91
2022-08-10T07:15:17.221Z,103251.09
2022-08-10T07:17:46.442Z,103217.50
2022-08-10T07:20:18.873Z,103174.84
2022-08-10T07:23:08.276Z,103143.53
2022-08-10T07:25:41.442Z,103090.41
2022-08-10T07:28:08.869Z,103046.94
2022-08-10T07:30:41.101Z,103012.50
2022-08-10T07:33:09.520Z,102963.75
2022-08-10T07:35:41.686Z,102956.41
2022-08-10T07:38:13.197Z,102955.28
2022-08-10T07:40:42.027Z,102947.56
2022-08-10T07:43:09.867Z,102943.16
2022-08-10T07:45:37.629Z,102944.09
2022-08-10T07:48:12.028Z,102938.03
2022-08-10T07:50:40.627Z,102933.59
2022-08-10T07:53:22.969Z,102933.25
2022-08-10T07:56:04.051Z,102928.19
2022-08-10T07:58:49.774Z,102931.69
2022-08-10T08:01:21.429Z,102921.91
2022-08-10T08:04:05.492Z,102923.63
2022-08-10T08:06:36.839Z,102924.75
2022-08-10T08:09:04.504Z,102920.19
2022-08-10T08:11:31.917Z,102926.69
2022-08-10T08:13:59.790Z,102928.53
2022-08-10T08:16:26.892Z,102925.75
2022-08-10T08:19:26.760Z,102920.97
2022-08-10T08:24:09.204Z,102918.50
2022-08-10T08:24:34.244Z,102914.66
2022-08-10T08:27:03.129Z,102911.59
2022-08-10T08:29:33.808Z,102907.84
2022-08-10T08:32:03.422Z,102910.94
2022-08-10T08:34:37.342Z,102904.81
2022-08-10T08:37:05.419Z,102897.16
2022-08-10T08:39:33.224Z,102897.16
2022-08-10T08:42:09.144Z,102890.94
2022-08-10T08:45:08.098Z,102888.09
2022-08-10T08:48:05.039Z,102888.91
2022-08-10T08:50:48.374Z,102896.09
2022-08-10T08:54:02.401Z,102879.56
2022-08-10T08:56:41.007Z,102882.22
2022-08-10T08:59:25.442Z,102879.69
2022-08-10T09:02:20.932Z,102881.88
2022-08-10T09:05:01.089Z,102870.81
2022-08-10T09:08:00.126Z,102872.44
2022-08-10T09:10:39.400Z,102873.25
2022-08-10T09:13:08.739Z,102863.00
2022-08-10T09:15:42.042Z,102865.31
2022-08-10T09:18:44.976Z,102858.84
2022-08-10T09:21:27.985Z,102848.44
2022-08-10T09:24:17.458Z,102846.34
2022-08-10T09:26:51.312Z,102854.44
2022-08-10T09:29:29.707Z,102845.38
2022-08-10T09:36:16.445Z,102850.50
2022-08-10T09:36:21.771Z,102867.69
2022-08-10T09:38:08.343Z,102859.34
2022-08-10T09:41:05.098Z,102874.88
2022-08-10T09:43:43.864Z,102864.31
2022-08-10T09:46:22.804Z,102869.19
2022-08-10T09:49:03.444Z,102869.22
2022-08-10T09:51:47.347Z,102871.03
2022-08-10T09:54:52.124Z,102878.50
2022-08-10T09:57:56.878Z,102880.75
2022-08-10T10:00:30.597Z,102884.81
2022-08-10T10:03:26.580Z,102889.13
2022-08-10T10:06:04.532Z,102904.94
2022-08-10T10:08:53.793Z,102914.38
2022-08-10T10:11:40.135Z,102922.38
2022-08-10T10:14:32.158Z,102926.19
2022-08-10T10:17:06.304Z,102943.72
2022-08-10T10:19:40.853Z,102954.63
2022-08-10T10:22:44.642Z,102978.16
2022-08-10T10:25:21.732Z,102998.78
2022-08-10T10:28:09.853Z,103021.22
2022-08-10T10:30:48.008Z,103035.91
2022-08-10T10:33:35.878Z,103027.22
2022-08-10T10:36:05.041Z,103028.19
2022-08-10T10:38:38.184Z,103028.75
2022-08-10T10:41:29.718Z,103023.78
2022-08-10T10:44:08.514Z,103025.38
2022-08-10T10:47:12.357Z,103024.19
2022-08-10T10:50:06.392Z,103011.81
2022-08-10T10:53:03.442Z,103008.47
2022-08-10T10:56:13.321Z,103001.97
2022-08-10T10:58:39.424Z,102922.44
2022-08-10T11:01:21.778Z,102875.53
2022-08-10T11:04:10.224Z,102864.09
2022-08-10T11:06:50.845Z,102824.00
2022-08-10T11:10:05.450Z,102694.63
2022-08-10T11:12:50.972Z,102625.84
2022-08-10T11:15:55.133Z,102641.19
2022-08-10T11:18:35.515Z,102647.34
2022-08-10T11:21:45.505Z,102633.44
2022-08-10T11:24:44.483Z,102576.25
2022-08-10T11:27:48.871Z,102498.16
2022-08-10T11:30:20.717Z,102498.81
2022-08-10T11:33:09.003Z,102558.31
2022-08-10T11:35:46.607Z,102504.72
2022-08-10T11:38:31.619Z,102485.75
2022-08-10T11:42:09.927Z,102435.09
2022-08-10T11:44:34.476Z,102460.31
2022-08-10T11:47:17.707Z,102335.88
2022-08-10T11:50:12.917Z,102382.81
2022-08-10T11:53:13.430Z,102463.88
2022-08-10T11:55:42.370Z,102392.50
2022-08-10T11:58:32.391Z,102359.78
2022-08-10T12:01:07.796Z,102314.03
2022-08-10T12:03:37.621Z,102359.25
2022-08-10T12:06:08.402Z,102375.38
2022-08-10T12:10:07.177Z,102304.72
2022-08-10T12:11:27.855Z,102289.84
2022-08-10T12:14:20.786Z,102342.53
2022-08-10T12:17:11.494Z,102366.34
2022-08-10T12:20:01.817Z,102401.25
2022-08-10T12:22:43.141Z,102234.16
2022-08-10T12:25:57.360Z,102268.06
2022-08-10T12:28:29.062Z,102173.94
2022-08-10T12:31:15.181Z,102141.94
2022-08-10T12:34:15.019Z,102110.75
2022-08-10T12:36:44.789Z,102189.88
2022-08-10T12:39:18.902Z,102253.44
2022-08-10T12:42:00.420Z,102322.06
2022-08-10T12:44:41.782Z,102310.19
2022-08-10T12:47:40.472Z,102181.88
2022-08-10T12:50:33.386Z,102239.41
2022-08-10T12:53:20.316Z,102386.25
2022-08-10T12:55:49.175Z,102330.00
2022-08-10T12:58:58.068Z,102293.31
2022-08-10T13:01:16.081Z,102145.56
2022-08-10T13:04:23.349Z,102151.78
2022-08-10T13:06:35.514Z,102260.47
2022-08-10T13:09:14.240Z,102259.81
2022-08-10T13:12:37.150Z,102098.38
2022-08-10T13:14:46.324Z,102036.88
2022-08-10T13:17:24.220Z,102081.38
2022-08-10T13:20:13.596Z,102182.69
2022-08-10T13:22:41.968Z,102143.66
2022-08-10T13:25:11.574Z,101960.91
2022-08-10T13:27:59.937Z,101887.59
2022-08-10T13:30:33.718Z,101928.59
2022-08-10T13:33:07.332Z,102040.28
2022-08-10T13:35:36.161Z,102063.53
2022-08-10T13:38:05.078Z,102072.38
2022-08-10T13:40:33.421Z,102020.16
2022-08-10T13:43:02.495Z,101889.41
2022-08-10T13:45:30.740Z,101936.94
2022-08-10T13:48:16.942Z,101887.31
2022-08-10T13:50:46.300Z,101805.00
2022-08-10T13:53:15.769Z,101910.25
2022-08-10T13:55:55.426Z,101825.75
2022-08-10T13:58:26.392Z,101845.41
2022-08-10T14:00:55.995Z,101777.63
2022-08-10T14:03:24.446Z,101804.06
2022-08-10T14:05:53.722Z,101762.06
2022-08-10T14:08:25.297Z,101674.69
2022-08-10T14:11:04.082Z,101665.50
2022-08-10T14:13:40.581Z,101713.97
2022-08-10T14:16:09.253Z,101690.13
2022-08-10T14:18:37.371Z,101699.19
2022-08-10T14:21:04.903Z,101679.78
2022-08-10T14:23:33.013Z,101809.53
2022-08-10T14:26:08.764Z,101730.28
2022-08-10T14:28:42.847Z,101674.41
2022-08-10T14:31:19.800Z,101622.56
2022-08-10T14:33:55.097Z,101616.47
2022-08-10T14:36:57.429Z,101696.13
2022-08-10T14:39:41.494Z,101564.84
2022-08-10T14:42:25.247Z,101599.75
2022-08-10T14:45:01.085Z,101652.72
2022-08-10T14:47:53.657Z,101833.00
2022-08-10T14:50:31.617Z,101871.88
2022-08-10T14:53:10.212Z,101824.81
2022-08-10T14:55:58.940Z,101774.94
2022-08-10T14:58:34.322Z,101716.72
2022-08-10T15:01:02.600Z,101659.09
2022-08-10T15:04:01.049Z,101674.34
2022-08-10T15:06:30.711Z,101722.97
2022-08-10T15:09:19.166Z,101729.22
2022-08-10T15:12:13.389Z,101672.03
2022-08-10T15:14:42.683Z,101572.03
2022-08-10T15:17:13.457Z,101598.31
2022-08-10T15:20:04.753Z,101630.31
2022-08-10T15:22:38.458Z,101675.38
2022-08-10T15:25:19.249Z,101689.22
2022-08-10T15:27:56.317Z,101667.91
2022-08-10T15:30:32.244Z,101674.22
2022-08-10T15:34:02.206Z,101628.56
2022-08-10T15:36:33.814Z,101638.22
2022-08-10T15:39:03.417Z,101635.13
2022-08-10T15:41:57.475Z,101673.22
2022-08-10T15:44:38.649Z,101602.53
2022-08-10T15:47:09.500Z,101649.91
2022-08-10T15:50:15.418Z,101631.25
2022-08-10T15:53:00.403Z,101603.34
2022-08-10T15:55:43.418Z,101645.75
2022-08-10T15:58:38.838Z,101689.09
2022-08-10T16:02:12.294Z,101693.34
2022-08-10T16:04:19.960Z,101647.69
2022-08-10T16:06:58.819Z,101717.19
2022-08-10T16:10:22.009Z,101679.19
2022-08-10T16:12:29.211Z,101658.75
2022-08-10T16:14:59.877Z,101637.34
2022-08-10T16:17:27.943Z,101652.97
2022-08-10T16:19:57.692Z,101634.31
2022-08-10T16:22:35.362Z,101704.47
2022-08-10T16:25:12.042Z,101717.03
2022-08-10T16:27:40.532Z,101679.72
2022-08-10T16:30:07.481Z,101731.50
2022-08-10T16:32:36.299Z,101675.28
2022-08-10T16:35:09.288Z,101720.19
2022-08-10T16:37:57.679Z,101694.88
2022-08-10T16:40:29.422Z,101780.91
2022-08-10T16:42:58.723Z,101774.41
2022-08-10T16:45:38.700Z,101785.88
2022-08-10T16:48:06.588Z,101747.50
2022-08-10T16:50:38.638Z,101709.38
2022-08-10T16:53:06.957Z,101688.53
2022-08-10T16:55:49.691Z,101760.47
2022-08-10T16:58:43.532Z,101770.50
2022-08-10T17:01:18.420Z,101741.22
2022-08-10T17:04:08.042Z,101757.13
2022-08-10T17:06:42.914Z,101735.09
2022-08-10T17:09:18.307Z,101794.03
2022-08-10T17:11:49.105Z,101819.38
2022-08-10T17:14:22.844Z,101843.31
2022-08-10T17:16:54.858Z,101826.31
2022-08-10T17:19:24.627Z,101856.34
2022-08-10T17:21:56.904Z,101867.72
2022-08-10T17:24:28.965Z,101868.81
2022-08-10T17:26:57.789Z,101845.22
2022-08-10T17:29:58.795Z,101857.53
2022-08-10T17:32:27.730Z,101883.03
2022-08-10T17:34:58.774Z,101872.78
2022-08-10T17:37:31.265Z,101864.72
2022-08-10T17:40:03.412Z,101961.00
2022-08-10T17:42:31.181Z,102025.28
2022-08-10T17:44:59.074Z,102067.50
2022-08-10T17:47:27.771Z,102170.19
2022-08-10T17:49:56.494Z,102310.03
2022-08-10T17:52:26.009Z,102433.09
2022-08-10T17:55:01.934Z,102495.78
2022-08-10T17:57:37.695Z,102546.81
2022-08-10T18:00:12.787Z,102584.69
2022-08-10T18:02:42.871Z,102611.38
2022-08-10T18:05:12.531Z,102640.41
2022-08-10T18:07:45.400Z,102658.28
2022-08-10T18:10:17.655Z,102672.78
2022-08-10T18:12:50.541Z,102703.91
2022-08-10T18:15:22.009Z,102720.00
2022-08-10T18:17:58.337Z,102730.34
2022-08-10T18:20:32.529Z,102747.66
2022-08-10T18:23:00.749Z,102760.31
2022-08-10T18:25:33.770Z,102769.88
2022-08-10T18:28:05.021Z,102776.59
2022-08-10T18:30:35.901Z,102785.44
2022-08-10T18:33:09.033Z,102785.59
2022-08-10T18:35:36.276Z,102798.34
2022-08-10T18:38:04.872Z,102805.22
2022-08-10T18:40:36.502Z,102812.06
2022-08-10T18:44:04.627Z,102814.50
2022-08-10T18:45:57.009Z,102808.84
2022-08-10T18:48:32.995Z,102802.16
2022-08-10T18:51:05.450Z,102804.16
2022-08-10T18:53:48.880Z,102804.28
2022-08-10T18:56:52.058Z,102795.91
2022-08-10T18:59:27.466Z,102787.75
2022-08-10T19:02:12.781Z,102784.75
2022-08-10T19:04:57.597Z,102781.75
2022-08-10T19:07:43.556Z,102778.41
2022-08-10T19:10:17.091Z,102777.22
2022-08-10T19:12:53.064Z,102751.88
2022-08-10T19:15:32.760Z,102723.28
2022-08-10T19:18:16.940Z,102700.47
2022-08-10T19:20:58.222Z,102706.66
2022-08-10T19:23:46.596Z,102702.97
2022-08-10T19:26:46.032Z,102681.19
2022-08-10T19:30:11.936Z,102676.41
2022-08-10T19:32:57.035Z,102667.34
2022-08-10T19:36:04.395Z,102661.72
2022-08-10T19:38:56.983Z,102654.88
2022-08-10T19:41:45.199Z,102638.47
2022-08-10T19:44:26.753Z,102631.47
2022-08-10T19:47:15.165Z,102623.38
2022-08-10T19:50:09.486Z,102616.16
2022-08-10T19:52:41.318Z,102597.97
2022-08-10T19:55:32.276Z,102593.00
2022-08-10T19:58:07.642Z,102570.13
2022-08-10T20:01:04.902Z,102567.09
2022-08-10T20:03:44.016Z,102544.56
2022-08-10T20:06:19.810Z,102535.09
2022-08-10T20:09:02.665Z,102525.91
2022-08-10T20:11:44.786Z,102513.16
2022-08-10T20:14:23.086Z,102502.88
2022-08-10T20:16:56.219Z,102491.00
2022-08-10T20:19:52.493Z,102471.69
2022-08-10T20:22:28.967Z,102468.59
2022-08-10T20:25:02.857Z,102440.63
2022-08-10T20:27:58.781Z,102425.31
2022-08-10T20:30:23.526Z,102424.34
2022-08-10T20:33:00.553Z,102408.53
2022-08-10T20:35:39.885Z,102400.03
2022-08-10T20:38:13.927Z,102388.34
2022-08-10T20:41:01.354Z,102375.22
2022-08-10T20:43:38.099Z,102380.09
2022-08-10T20:46:13.769Z,102367.94
2022-08-10T20:48:53.545Z,102350.22
2022-08-10T20:51:25.347Z,102342.75
2022-08-10T20:54:12.380Z,102327.72
2022-08-10T20:57:54.075Z,102322.44
2022-08-10T21:00:04.241Z,102310.41
2022-08-10T21:02:47.737Z,102301.59
2022-08-10T21:05:27.137Z,102296.03
2022-08-10T21:08:03.562Z,102305.91
2022-08-10T21:11:00.587Z,102293.97
2022-08-10T21:13:44.573Z,102297.50
2022-08-10T21:16:28.318Z,102291.00
2022-08-10T21:19:05.188Z,102296.47
2022-08-10T21:21:59.345Z,102297.59
2022-08-10T21:24:40.967Z,102299.00
2022-08-10T21:27:47.145Z,102309.19
2022-08-10T21:30:17.135Z,102318.78
2022-08-10T21:32:54.280Z,102313.75
2022-08-10T21:35:37.150Z,102315.56
2022-08-10T21:38:21.463Z,102314.41
2022-08-10T21:41:17.533Z,102319.28
2022-08-10T21:44:14.743Z,102324.84
2022-08-10T21:48:06.664Z,102326.94
2022-08-10T21:50:55.671Z,102335.34
2022-08-10T21:53:50.189Z,102329.06
2022-08-10T21:56:46.434Z,102340.03
2022-08-10T21:59:56.360Z,102343.91
2022-08-10T22:02:50.350Z,102346.22
2022-08-10T22:05:42.765Z,102356.06
2022-08-10T22:08:33.384Z,102365.66
2022-08-10T22:11:20.254Z,102377.13
2022-08-10T22:14:09.621Z,102392.31
2022-08-10T22:16:54.489Z,102407.53
2022-08-10T22:19:39.888Z,102422.19
2022-08-10T22:22:37.457Z,102425.84
2022-08-10T22:25:52.901Z,102439.25
2022-08-10T22:28:38.219Z,102439.88
2022-08-10T22:32:00.976Z,102447.22
2022-08-10T22:35:16.213Z,102457.53
2022-08-10T22:38:38.880Z,102464.31
2022-08-10T22:41:33.440Z,102467.41
2022-08-10T22:44:20.399Z,102482.84
2022-08-10T22:47:08.101Z,102490.94
2022-08-10T22:49:34.728Z,102525.75
2022-08-10T22:52:21.510Z,102556.31
2022-08-10T22:55:46.947Z,102569.09
2022-08-10T22:58:33.798Z,102589.06
2022-08-10T23:01:06.437Z,102604.47
2022-08-10T23:03:42.931Z,102618.44
2022-08-10T23:06:16.812Z,102630.84
2022-08-10T23:09:01.535Z,102646.75
2022-08-10T23:11:32.166Z,102652.22
2022-08-10T23:14:09.749Z,102663.97
2022-08-10T23:17:06.002Z,102659.88
2022-08-10T23:19:43.595Z,102679.59
2022-08-10T23:22:13.964Z,102681.25
2022-08-10T23:24:55.053Z,102702.75
2022-08-10T23:27:38.020Z,102705.72
2022-08-10T23:30:17.049Z,102708.66
2022-08-10T23:32:48.818Z,102719.34
2022-08-10T23:36:05.613Z,102727.53
2022-08-10T23:38:04.748Z,102739.19
2022-08-10T23:40:32.249Z,102752.63
2022-08-10T23:43:00.349Z,102754.44
2022-08-10T23:45:28.740Z,102755.22
2022-08-10T23:48:19.000Z,102763.22
2022-08-10T23:50:53.352Z,102767.84
2022-08-10T23:53:28.693Z,102776.78
2022-08-10T23:56:01.888Z,102782.66
2022-08-10T23:58:35.353Z,102784.66
